sensor_id;sensor_type;location;lat;lon;timestamp;temperature;humidity
5457;DHT22;2751;49.802;9.944;2023-03-14T00:01:10;10.20;99.90
5457;DHT22;2751;49.802;9.944;2023-03-14T00:03:39;10.20;99.90
5457;DHT22;2751;49.802;9.944;2023-03-14T00:06:07;10.30;1.00
5457;DHT22;2751;49.802;9.944;2023-03-14T00:08:34;10.30;1.00
5457;DHT22;2751;49.802;9.944;2023-03-14T00:11:05;10.30;1.00
5457;DHT22;2751;49.802;9.944;2023-03-14T00:13:32;10.40;99.90
5457;DHT22;2751;49.802;9.944;2023-03-14T00:16:02;10.30;99.90
5457;DHT22;2751;49.802;9.944;2023-03-14T00:18:29;10.30;99.90
5457;DHT22;2751;49.802;9.944;2023-03-14T00:20:58;10.40;1.00
5457;DHT22;2751;49.802;9.944;2023-03-14T00:23:26;10.70;1.00
5457;DHT22;2751;49.802;9.944;2023-03-14T00:25:53;10.50;99.90
5457;DHT22;2751;49.802;9.944;2023-03-14T00:28:24;10.50;99.90
5457;DHT22;2751;49.802;9.944;2023-03-14T00:30:51;10.50;1.00
5457;DHT22;2751;49.802;9.944;2023-03-14T00:33:18;10.60;1.00
5457;DHT22;2751;49.802;9.944;2023-03-14T00:35:52;10.60;1.00
5457;DHT22;2751;49.802;9.944;2023-03-14T00:38:20;10.60;99.90
5457;DHT22;2751;49.802;9.944;2023-03-14T00:40:47;10.60;1.00
5457;DHT22;2751;49.802;9.944;2023-03-14T00:43:14;10.70;99.90
5457;DHT22;2751;49.802;9.944;2023-03-14T00:45:41;10.70;15.90
5457;DHT22;2751;49.802;9.944;2023-03-14T00:48:08;10.80;99.90
5457;DHT22;2751;49.802;9.944;2023-03-14T00:50:35;10.80;1.00
5457;DHT22;2751;49.802;9.944;2023-03-14T00:53:02;10.80;99.90
5457;DHT22;2751;49.802;9.944;2023-03-14T00:55:30;10.90;99.90
5457;DHT22;2751;49.802;9.944;2023-03-14T00:57:59;10.90;99.90
5457;DHT22;2751;49.802;9.944;2023-03-14T01:00:26;10.90;99.90
5457;DHT22;2751;49.802;9.944;2023-03-14T01:02:53;10.90;91.90
5457;DHT22;2751;49.802;9.944;2023-03-14T01:05:21;10.90;97.10
5457;DHT22;2751;49.802;9.944;2023-03-14T01:07:48;11.00;1.00
5457;DHT22;2751;49.802;9.944;2023-03-14T01:10:15;10.90;1.00
5457;DHT22;2751;49.802;9.944;2023-03-14T01:12:43;10.90;1.00
5457;DHT22;2751;49.802;9.944;2023-03-14T01:15:10;11.00;1.00
5457;DHT22;2751;49.802;9.944;2023-03-14T01:17:37;11.00;1.00
5457;DHT22;2751;49.802;9.944;2023-03-14T01:20:05;11.30;1.00
5457;DHT22;2751;49.802;9.944;2023-03-14T01:22:34;11.00;1.00
5457;DHT22;2751;49.802;9.944;2023-03-14T01:25:01;11.00;1.00
5457;DHT22;2751;49.802;9.944;2023-03-14T01:27:28;11.00;1.00
5457;DHT22;2751;49.802;9.944;2023-03-14T01:29:56;11.10;1.00
5457;DHT22;2751;49.802;9.944;2023-03-14T01:32:24;11.00;1.00
5457;DHT22;2751;49.802;9.944;2023-03-14T01:34:51;11.00;1.00
5457;DHT22;2751;49.802;9.944;2023-03-14T01:37:18;10.90;1.00
5457;DHT22;2751;49.802;9.944;2023-03-14T01:39:46;10.90;1.00
5457;DHT22;2751;49.802;9.944;2023-03-14T01:42:13;10.90;1.00
5457;DHT22;2751;49.802;9.944;2023-03-14T01:44:49;11.00;1.00
5457;DHT22;2751;49.802;9.944;2023-03-14T01:47:17;11.00;1.00
5457;DHT22;2751;49.802;9.944;2023-03-14T01:49:46;10.90;1.00
5457;DHT22;2751;49.802;9.944;2023-03-14T01:52:16;10.90;1.00
5457;DHT22;2751;49.802;9.944;2023-03-14T01:54:46;10.90;99.90
5457;DHT22;2751;49.802;9.944;2023-03-14T01:57:17;10.90;1.00
5457;DHT22;2751;49.802;9.944;2023-03-14T01:59:47;10.90;1.00
5457;DHT22;2751;49.802;9.944;2023-03-14T02:02:17;11.10;1.00
5457;DHT22;2751;49.802;9.944;2023-03-14T02:04:44;10.90;1.00
5457;DHT22;2751;49.802;9.944;2023-03-14T02:07:15;10.90;99.90
5457;DHT22;2751;49.802;9.944;2023-03-14T02:09:42;10.90;1.00
5457;DHT22;2751;49.802;9.944;2023-03-14T02:12:11;10.90;1.00
5457;DHT22;2751;49.802;9.944;2023-03-14T02:14:40;10.90;1.00
5457;DHT22;2751;49.802;9.944;2023-03-14T02:17:08;10.80;1.00
5457;DHT22;2751;49.802;9.944;2023-03-14T02:19:55;10.80;1.00
5457;DHT22;2751;49.802;9.944;2023-03-14T02:22:27;10.80;1.00
5457;DHT22;2751;49.802;9.944;2023-03-14T02:25:01;10.80;1.00
5457;DHT22;2751;49.802;9.944;2023-03-14T02:27:30;10.70;1.00
5457;DHT22;2751;49.802;9.944;2023-03-14T02:30:01;10.70;1.00
5457;DHT22;2751;49.802;9.944;2023-03-14T02:32:32;10.70;1.00
5457;DHT22;2751;49.802;9.944;2023-03-14T02:35:03;10.70;1.00
5457;DHT22;2751;49.802;9.944;2023-03-14T02:37:37;10.80;1.00
5457;DHT22;2751;49.802;9.944;2023-03-14T02:40:06;10.70;1.00
5457;DHT22;2751;49.802;9.944;2023-03-14T02:42:34;10.80;1.00
5457;DHT22;2751;49.802;9.944;2023-03-14T02:45:35;10.70;1.00
5457;DHT22;2751;49.802;9.944;2023-03-14T02:48:06;10.80;1.00
5457;DHT22;2751;49.802;9.944;2023-03-14T02:50:34;10.80;1.00
5457;DHT22;2751;49.802;9.944;2023-03-14T02:53:01;10.80;1.00
5457;DHT22;2751;49.802;9.944;2023-03-14T02:55:28;10.80;99.90
5457;DHT22;2751;49.802;9.944;2023-03-14T02:57:56;10.80;1.00
5457;DHT22;2751;49.802;9.944;2023-03-14T03:00:23;11.10;1.00
5457;DHT22;2751;49.802;9.944;2023-03-14T03:02:51;10.60;99.90
5457;DHT22;2751;49.802;9.944;2023-03-14T03:05:18;10.60;99.90
5457;DHT22;2751;49.802;9.944;2023-03-14T03:07:44;10.50;99.90
5457;DHT22;2751;49.802;9.944;2023-03-14T03:10:12;10.90;99.90
5457;DHT22;2751;49.802;9.944;2023-03-14T03:12:39;10.00;99.90
5457;DHT22;2751;49.802;9.944;2023-03-14T03:15:08;10.50;99.90
5457;DHT22;2751;49.802;9.944;2023-03-14T03:17:35;10.50;99.90
5457;DHT22;2751;49.802;9.944;2023-03-14T03:20:02;10.70;1.00
5457;DHT22;2751;49.802;9.944;2023-03-14T03:22:30;10.50;1.00
5457;DHT22;2751;49.802;9.944;2023-03-14T03:24:57;10.40;1.00
5457;DHT22;2751;49.802;9.944;2023-03-14T03:27:24;10.40;1.00
5457;DHT22;2751;49.802;9.944;2023-03-14T03:29:50;10.40;1.00
5457;DHT22;2751;49.802;9.944;2023-03-14T03:32:19;10.40;12.10
5457;DHT22;2751;49.802;9.944;2023-03-14T03:34:45;10.70;3.00
5457;DHT22;2751;49.802;9.944;2023-03-14T03:37:12;10.40;1.00
5457;DHT22;2751;49.802;9.944;2023-03-14T03:39:39;10.60;1.00
5457;DHT22;2751;49.802;9.944;2023-03-14T03:42:06;10.40;1.00
5457;DHT22;2751;49.802;9.944;2023-03-14T03:44:33;10.40;1.00
5457;DHT22;2751;49.802;9.944;2023-03-14T03:47:00;10.50;99.90
5457;DHT22;2751;49.802;9.944;2023-03-14T03:49:30;10.50;99.90
5457;DHT22;2751;49.802;9.944;2023-03-14T03:51:57;10.50;99.90
5457;DHT22;2751;49.802;9.944;2023-03-14T03:54:24;10.50;99.90
5457;DHT22;2751;49.802;9.944;2023-03-14T03:56:51;10.50;99.90
5457;DHT22;2751;49.802;9.944;2023-03-14T03:59:18;10.50;1.00
5457;DHT22;2751;49.802;9.944;2023-03-14T04:01:45;10.50;99.90
5457;DHT22;2751;49.802;9.944;2023-03-14T04:04:12;10.50;1.00
5457;DHT22;2751;49.802;9.944;2023-03-14T04:06:40;10.50;1.00
5457;DHT22;2751;49.802;9.944;2023-03-14T04:09:08;10.50;99.90
5457;DHT22;2751;49.802;9.944;2023-03-14T04:11:35;10.50;99.90
5457;DHT22;2751;49.802;9.944;2023-03-14T04:14:02;10.60;1.00
5457;DHT22;2751;49.802;9.944;2023-03-14T04:16:29;10.60;99.90
5457;DHT22;2751;49.802;9.944;2023-03-14T04:18:57;10.70;99.90
5457;DHT22;2751;49.802;9.944;2023-03-14T04:21:24;10.70;99.90
5457;DHT22;2751;49.802;9.944;2023-03-14T04:23:52;10.70;99.90
5457;DHT22;2751;49.802;9.944;2023-03-14T04:26:19;11.00;48.60
5457;DHT22;2751;49.802;9.944;2023-03-14T04:28:46;10.60;99.90
5457;DHT22;2751;49.802;9.944;2023-03-14T04:31:16;10.90;99.90
5457;DHT22;2751;49.802;9.944;2023-03-14T04:33:43;10.60;29.70
5457;DHT22;2751;49.802;9.944;2023-03-14T04:36:10;10.90;70.90
5457;DHT22;2751;49.802;9.944;2023-03-14T04:38:37;10.60;39.40
5457;DHT22;2751;49.802;9.944;2023-03-14T04:41:06;10.60;1.00
5457;DHT22;2751;49.802;9.944;2023-03-14T04:43:33;10.60;1.00
5457;DHT22;2751;49.802;9.944;2023-03-14T04:46:00;10.70;1.00
5457;DHT22;2751;49.802;9.944;2023-03-14T04:48:27;10.70;1.00
5457;DHT22;2751;49.802;9.944;2023-03-14T04:50:55;10.70;1.00
5457;DHT22;2751;49.802;9.944;2023-03-14T04:53:22;10.90;1.00
5457;DHT22;2751;49.802;9.944;2023-03-14T04:55:49;10.70;1.00
5457;DHT22;2751;49.802;9.944;2023-03-14T04:58:18;10.70;1.00
5457;DHT22;2751;49.802;9.944;2023-03-14T05:00:45;10.90;1.00
5457;DHT22;2751;49.802;9.944;2023-03-14T05:03:12;11.00;1.00
5457;DHT22;2751;49.802;9.944;2023-03-14T05:05:40;10.60;99.90
5457;DHT22;2751;49.802;9.944;2023-03-14T05:08:07;10.60;1.00
5457;DHT22;2751;49.802;9.944;2023-03-14T05:10:34;10.60;1.00
5457;DHT22;2751;49.802;9.944;2023-03-14T05:13:01;10.60;99.90
5457;DHT22;2751;49.802;9.944;2023-03-14T05:15:29;10.60;1.00
5457;DHT22;2751;49.802;9.944;2023-03-14T05:17:56;10.60;1.00
5457;DHT22;2751;49.802;9.944;2023-03-14T05:20:22;10.60;1.00
5457;DHT22;2751;49.802;9.944;2023-03-14T05:22:49;10.60;99.90
5457;DHT22;2751;49.802;9.944;2023-03-14T05:25:16;10.60;1.00
5457;DHT22;2751;49.802;9.944;2023-03-14T05:27:43;10.60;99.90
5457;DHT22;2751;49.802;9.944;2023-03-14T05:30:11;10.50;1.00
5457;DHT22;2751;49.802;9.944;2023-03-14T05:32:39;10.50;1.00
5457;DHT22;2751;49.802;9.944;2023-03-14T05:35:07;10.50;99.90
5457;DHT22;2751;49.802;9.944;2023-03-14T05:37:33;10.50;1.00
5457;DHT22;2751;49.802;9.944;2023-03-14T05:40:01;10.50;1.00
5457;DHT22;2751;49.802;9.944;2023-03-14T05:42:30;10.50;1.00
5457;DHT22;2751;49.802;9.944;2023-03-14T05:44:57;10.50;1.00
5457;DHT22;2751;49.802;9.944;2023-03-14T05:47:24;10.50;1.00
5457;DHT22;2751;49.802;9.944;2023-03-14T05:49:52;10.50;99.90
5457;DHT22;2751;49.802;9.944;2023-03-14T05:52:20;10.80;1.00
5457;DHT22;2751;49.802;9.944;2023-03-14T05:54:47;10.60;1.00
5457;DHT22;2751;49.802;9.944;2023-03-14T05:57:14;10.50;99.90
5457;DHT22;2751;49.802;9.944;2023-03-14T05:59:44;10.50;99.90
5457;DHT22;2751;49.802;9.944;2023-03-14T06:02:11;10.40;1.00
5457;DHT22;2751;49.802;9.944;2023-03-14T06:04:38;10.40;1.00
5457;DHT22;2751;49.802;9.944;2023-03-14T06:07:06;10.40;99.90
5457;DHT22;2751;49.802;9.944;2023-03-14T06:09:33;10.70;99.90
5457;DHT22;2751;49.802;9.944;2023-03-14T06:11:59;10.40;99.90
5457;DHT22;2751;49.802;9.944;2023-03-14T06:14:26;10.50;99.90
5457;DHT22;2751;49.802;9.944;2023-03-14T06:16:53;10.50;99.90
5457;DHT22;2751;49.802;9.944;2023-03-14T06:19:20;10.60;99.90
5457;DHT22;2751;49.802;9.944;2023-03-14T06:21:47;10.70;99.90
5457;DHT22;2751;49.802;9.944;2023-03-14T06:24:15;10.50;99.90
5457;DHT22;2751;49.802;9.944;2023-03-14T06:26:42;10.50;99.90
5457;DHT22;2751;49.802;9.944;2023-03-14T06:29:09;10.70;99.90
5457;DHT22;2751;49.802;9.944;2023-03-14T06:31:36;10.50;99.90
5457;DHT22;2751;49.802;9.944;2023-03-14T06:34:03;10.50;99.90
5457;DHT22;2751;49.802;9.944;2023-03-14T06:36:30;10.50;99.90
5457;DHT22;2751;49.802;9.944;2023-03-14T06:38:57;10.60;99.90
5457;DHT22;2751;49.802;9.944;2023-03-14T06:41:25;10.60;99.90
5457;DHT22;2751;49.802;9.944;2023-03-14T06:43:52;10.70;99.90
5457;DHT22;2751;49.802;9.944;2023-03-14T06:46:19;11.00;99.90
5457;DHT22;2751;49.802;9.944;2023-03-14T06:48:46;10.90;99.90
5457;DHT22;2751;49.802;9.944;2023-03-14T06:51:13;10.90;99.90
5457;DHT22;2751;49.802;9.944;2023-03-14T06:53:39;10.90;99.90
5457;DHT22;2751;49.802;9.944;2023-03-14T06:56:07;11.20;99.90
5457;DHT22;2751;49.802;9.944;2023-03-14T06:58:36;11.00;99.90
5457;DHT22;2751;49.802;9.944;2023-03-14T07:01:03;11.00;99.90
5457;DHT22;2751;49.802;9.944;2023-03-14T07:03:30;11.00;99.90
5457;DHT22;2751;49.802;9.944;2023-03-14T07:05:57;11.10;99.90
5457;DHT22;2751;49.802;9.944;2023-03-14T07:08:24;11.50;99.90
5457;DHT22;2751;49.802;9.944;2023-03-14T07:10:51;11.20;99.90
5457;DHT22;2751;49.802;9.944;2023-03-14T07:13:18;11.20;99.90
5457;DHT22;2751;49.802;9.944;2023-03-14T07:15:46;11.30;99.90
5457;DHT22;2751;49.802;9.944;2023-03-14T07:18:13;10.80;99.90
5457;DHT22;2751;49.802;9.944;2023-03-14T07:20:40;11.30;99.90
5457;DHT22;2751;49.802;9.944;2023-03-14T07:23:07;11.30;99.90
5457;DHT22;2751;49.802;9.944;2023-03-14T07:25:37;11.60;99.90
5457;DHT22;2751;49.802;9.944;2023-03-14T07:28:04;11.40;99.90
5457;DHT22;2751;49.802;9.944;2023-03-14T07:30:31;10.80;99.90
5457;DHT22;2751;49.802;9.944;2023-03-14T07:32:59;11.20;99.90
5457;DHT22;2751;49.802;9.944;2023-03-14T07:35:26;11.30;99.90
5457;DHT22;2751;49.802;9.944;2023-03-14T07:37:53;11.30;99.90
5457;DHT22;2751;49.802;9.944;2023-03-14T07:40:20;11.30;99.90
5457;DHT22;2751;49.802;9.944;2023-03-14T07:42:47;11.30;99.90
5457;DHT22;2751;49.802;9.944;2023-03-14T07:45:15;11.40;99.90
5457;DHT22;2751;49.802;9.944;2023-03-14T07:47:42;11.20;99.90
5457;DHT22;2751;49.802;9.944;2023-03-14T07:50:11;11.20;99.90
5457;DHT22;2751;49.802;9.944;2023-03-14T07:52:37;11.50;99.90
5457;DHT22;2751;49.802;9.944;2023-03-14T07:55:05;11.20;99.90
5457;DHT22;2751;49.802;9.944;2023-03-14T07:57:32;11.20;99.90
5457;DHT22;2751;49.802;9.944;2023-03-14T07:59:59;11.30;99.90
5457;DHT22;2751;49.802;9.944;2023-03-14T08:02:26;11.30;99.90
5457;DHT22;2751;49.802;9.944;2023-03-14T08:04:53;11.70;99.90
5457;DHT22;2751;49.802;9.944;2023-03-14T08:07:21;11.40;99.90
5457;DHT22;2751;49.802;9.944;2023-03-14T08:09:50;11.80;99.90
5457;DHT22;2751;49.802;9.944;2023-03-14T08:12:17;11.60;99.90
5457;DHT22;2751;49.802;9.944;2023-03-14T08:14:44;11.60;99.90
5457;DHT22;2751;49.802;9.944;2023-03-14T08:17:11;11.80;99.90
5457;DHT22;2751;49.802;9.944;2023-03-14T08:19:40;11.90;99.90
5457;DHT22;2751;49.802;9.944;2023-03-14T08:22:07;12.10;99.90
5457;DHT22;2751;49.802;9.944;2023-03-14T08:24:35;12.30;99.90
5457;DHT22;2751;49.802;9.944;2023-03-14T08:27:02;12.70;99.90
5457;DHT22;2751;49.802;9.944;2023-03-14T08:29:29;12.20;99.90
5457;DHT22;2751;49.802;9.944;2023-03-14T08:31:56;12.40;99.90
5457;DHT22;2751;49.802;9.944;2023-03-14T08:34:23;12.20;99.90
5457;DHT22;2751;49.802;9.944;2023-03-14T08:36:50;12.00;99.90
5457;DHT22;2751;49.802;9.944;2023-03-14T08:39:17;12.00;99.90
5457;DHT22;2751;49.802;9.944;2023-03-14T08:41:45;12.20;99.90
5457;DHT22;2751;49.802;9.944;2023-03-14T08:44:12;12.50;99.90
5457;DHT22;2751;49.802;9.944;2023-03-14T08:46:39;12.40;99.90
5457;DHT22;2751;49.802;9.944;2023-03-14T08:49:06;12.70;99.90
5457;DHT22;2751;49.802;9.944;2023-03-14T08:51:33;12.60;99.90
5457;DHT22;2751;49.802;9.944;2023-03-14T08:53:59;13.00;99.90
5457;DHT22;2751;49.802;9.944;2023-03-14T08:56:26;13.40;99.90
5457;DHT22;2751;49.802;9.944;2023-03-14T08:58:54;13.40;99.90
5457;DHT22;2751;49.802;9.944;2023-03-14T09:01:21;13.60;99.90
5457;DHT22;2751;49.802;9.944;2023-03-14T09:03:50;13.20;99.90
5457;DHT22;2751;49.802;9.944;2023-03-14T09:06:17;13.40;95.20
5457;DHT22;2751;49.802;9.944;2023-03-14T09:08:44;13.40;94.60
5457;DHT22;2751;49.802;9.944;2023-03-14T09:11:12;13.80;89.70
5457;DHT22;2751;49.802;9.944;2023-03-14T09:13:39;13.70;98.00
5457;DHT22;2751;49.802;9.944;2023-03-14T09:16:10;13.20;68.40
5457;DHT22;2751;49.802;9.944;2023-03-14T09:18:37;13.50;93.00
5457;DHT22;2751;49.802;9.944;2023-03-14T09:21:04;13.30;99.90
5457;DHT22;2751;49.802;9.944;2023-03-14T09:23:31;13.20;99.90
5457;DHT22;2751;49.802;9.944;2023-03-14T09:25:59;13.00;52.20
5457;DHT22;2751;49.802;9.944;2023-03-14T09:28:26;13.40;80.00
5457;DHT22;2751;49.802;9.944;2023-03-14T09:30:53;13.20;65.40
5457;DHT22;2751;49.802;9.944;2023-03-14T09:33:22;13.20;98.80
5457;DHT22;2751;49.802;9.944;2023-03-14T09:35:49;13.20;99.90
5457;DHT22;2751;49.802;9.944;2023-03-14T09:38:16;13.10;70.40
5457;DHT22;2751;49.802;9.944;2023-03-14T09:40:43;13.20;97.60
5457;DHT22;2751;49.802;9.944;2023-03-14T09:43:12;13.30;79.90
5457;DHT22;2751;49.802;9.944;2023-03-14T09:45:42;13.40;99.90
5457;DHT22;2751;49.802;9.944;2023-03-14T09:48:15;13.40;92.20
5457;DHT22;2751;49.802;9.944;2023-03-14T09:50:48;13.60;99.90
5457;DHT22;2751;49.802;9.944;2023-03-14T09:53:17;14.20;54.30
5457;DHT22;2751;49.802;9.944;2023-03-14T09:55:47;14.50;99.90
5457;DHT22;2751;49.802;9.944;2023-03-14T09:58:17;14.40;75.40
5457;DHT22;2751;49.802;9.944;2023-03-14T10:00:45;14.10;41.30
5457;DHT22;2751;49.802;9.944;2023-03-14T10:03:25;14.00;63.70
5457;DHT22;2751;49.802;9.944;2023-03-14T10:05:55;13.90;57.70
5457;DHT22;2751;49.802;9.944;2023-03-14T10:08:22;14.40;52.30
5457;DHT22;2751;49.802;9.944;2023-03-14T10:10:49;14.30;56.80
5457;DHT22;2751;49.802;9.944;2023-03-14T10:13:18;14.20;58.90
5457;DHT22;2751;49.802;9.944;2023-03-14T10:15:50;14.60;91.30
5457;DHT22;2751;49.802;9.944;2023-03-14T10:18:18;15.00;97.90
5457;DHT22;2751;49.802;9.944;2023-03-14T10:20:46;14.80;76.60
5457;DHT22;2751;49.802;9.944;2023-03-14T10:23:26;14.70;89.00
5457;DHT22;2751;49.802;9.944;2023-03-14T10:26:05;16.40;91.00
5457;DHT22;2751;49.802;9.944;2023-03-14T10:28:37;16.40;97.80
5457;DHT22;2751;49.802;9.944;2023-03-14T10:31:05;17.30;99.90
5457;DHT22;2751;49.802;9.944;2023-03-14T10:33:33;18.20;99.90
5457;DHT22;2751;49.802;9.944;2023-03-14T10:36:03;18.70;99.90
5457;DHT22;2751;49.802;9.944;2023-03-14T10:38:32;19.10;99.90
5457;DHT22;2751;49.802;9.944;2023-03-14T10:41:00;19.30;99.90
5457;DHT22;2751;49.802;9.944;2023-03-14T10:43:31;19.20;99.90
5457;DHT22;2751;49.802;9.944;2023-03-14T10:46:00;19.20;99.90
5457;DHT22;2751;49.802;9.944;2023-03-14T10:48:32;18.10;99.90
5457;DHT22;2751;49.802;9.944;2023-03-14T10:51:05;17.30;99.90
5457;DHT22;2751;49.802;9.944;2023-03-14T10:53:39;17.60;99.90
5457;DHT22;2751;49.802;9.944;2023-03-14T10:56:07;18.60;99.90
5457;DHT22;2751;49.802;9.944;2023-03-14T10:58:40;19.30;1.00
5457;DHT22;2751;49.802;9.944;2023-03-14T11:01:28;19.40;1.00
5457;DHT22;2751;49.802;9.944;2023-03-14T11:04:01;18.20;99.90
5457;DHT22;2751;49.802;9.944;2023-03-14T11:06:36;17.90;99.90
5457;DHT22;2751;49.802;9.944;2023-03-14T11:09:12;17.60;99.90
5457;DHT22;2751;49.802;9.944;2023-03-14T11:11:45;16.50;99.90
5457;DHT22;2751;49.802;9.944;2023-03-14T11:14:23;16.00;99.90
5457;DHT22;2751;49.802;9.944;2023-03-14T11:17:00;15.70;99.90
5457;DHT22;2751;49.802;9.944;2023-03-14T11:19:42;15.20;99.90
5457;DHT22;2751;49.802;9.944;2023-03-14T11:22:18;14.50;99.90
5457;DHT22;2751;49.802;9.944;2023-03-14T11:25:03;14.40;99.90
5457;DHT22;2751;49.802;9.944;2023-03-14T11:27:41;14.30;99.90
5457;DHT22;2751;49.802;9.944;2023-03-14T11:30:17;14.20;99.90
5457;DHT22;2751;49.802;9.944;2023-03-14T11:32:46;14.40;99.90
5457;DHT22;2751;49.802;9.944;2023-03-14T11:35:24;14.50;99.90
5457;DHT22;2751;49.802;9.944;2023-03-14T11:37:54;15.00;99.90
5457;DHT22;2751;49.802;9.944;2023-03-14T11:40:26;15.70;99.90
5457;DHT22;2751;49.802;9.944;2023-03-14T11:43:04;15.70;99.90
5457;DHT22;2751;49.802;9.944;2023-03-14T11:45:35;15.00;99.90
5457;DHT22;2751;49.802;9.944;2023-03-14T11:48:20;14.80;99.90
5457;DHT22;2751;49.802;9.944;2023-03-14T11:50:52;14.70;99.90
5457;DHT22;2751;49.802;9.944;2023-03-14T11:53:24;14.30;99.90
5457;DHT22;2751;49.802;9.944;2023-03-14T11:55:53;14.10;99.90
5457;DHT22;2751;49.802;9.944;2023-03-14T11:58:24;13.90;99.90
5457;DHT22;2751;49.802;9.944;2023-03-14T12:00:54;13.70;99.90
5457;DHT22;2751;49.802;9.944;2023-03-14T12:03:28;13.30;99.90
5457;DHT22;2751;49.802;9.944;2023-03-14T12:06:02;13.00;99.90
5457;DHT22;2751;49.802;9.944;2023-03-14T12:08:44;12.80;99.90
5457;DHT22;2751;49.802;9.944;2023-03-14T12:11:33;12.60;99.90
5457;DHT22;2751;49.802;9.944;2023-03-14T12:14:02;12.40;1.00
5457;DHT22;2751;49.802;9.944;2023-03-14T12:16:34;12.20;1.00
5457;DHT22;2751;49.802;9.944;2023-03-14T12:19:35;12.10;99.90
5457;DHT22;2751;49.802;9.944;2023-03-14T12:22:24;11.90;1.00
5457;DHT22;2751;49.802;9.944;2023-03-14T12:24:57;11.80;1.00
5457;DHT22;2751;49.802;9.944;2023-03-14T12:27:46;11.70;99.90
5457;DHT22;2751;49.802;9.944;2023-03-14T12:30:26;11.50;99.90
5457;DHT22;2751;49.802;9.944;2023-03-14T12:36:11;11.50;99.90
5457;DHT22;2751;49.802;9.944;2023-03-14T12:41:42;11.40;99.90
5457;DHT22;2751;49.802;9.944;2023-03-14T12:44:44;11.40;1.00
5457;DHT22;2751;49.802;9.944;2023-03-14T12:50:34;11.50;99.90
5457;DHT22;2751;49.802;9.944;2023-03-14T12:53:18;11.50;99.90
5457;DHT22;2751;49.802;9.944;2023-03-14T12:55:51;11.40;1.00
5457;DHT22;2751;49.802;9.944;2023-03-14T12:58:28;11.40;99.90
5457;DHT22;2751;49.802;9.944;2023-03-14T13:01:00;11.40;1.00
5457;DHT22;2751;49.802;9.944;2023-03-14T13:03:37;11.40;1.00
5457;DHT22;2751;49.802;9.944;2023-03-14T13:06:08;11.40;99.90
5457;DHT22;2751;49.802;9.944;2023-03-14T13:08:38;11.50;1.00
5457;DHT22;2751;49.802;9.944;2023-03-14T13:11:08;12.00;99.90
5457;DHT22;2751;49.802;9.944;2023-03-14T13:13:40;11.80;1.00
5457;DHT22;2751;49.802;9.944;2023-03-14T13:16:14;12.10;99.90
5457;DHT22;2751;49.802;9.944;2023-03-14T13:18:43;12.30;1.00
5457;DHT22;2751;49.802;9.944;2023-03-14T13:21:13;12.30;1.00
5457;DHT22;2751;49.802;9.944;2023-03-14T13:23:54;12.30;1.00
5457;DHT22;2751;49.802;9.944;2023-03-14T13:26:22;12.00;1.00
5457;DHT22;2751;49.802;9.944;2023-03-14T13:28:50;12.30;78.80
5457;DHT22;2751;49.802;9.944;2023-03-14T13:31:22;11.90;82.20
5457;DHT22;2751;49.802;9.944;2023-03-14T13:34:00;11.40;4.10
5457;DHT22;2751;49.802;9.944;2023-03-14T13:36:27;11.10;1.00
5457;DHT22;2751;49.802;9.944;2023-03-14T13:38:58;10.20;1.00
5457;DHT22;2751;49.802;9.944;2023-03-14T13:41:25;10.10;99.90
5457;DHT22;2751;49.802;9.944;2023-03-14T13:44:01;9.70;99.90
5457;DHT22;2751;49.802;9.944;2023-03-14T13:46:33;9.70;1.00
5457;DHT22;2751;49.802;9.944;2023-03-14T13:49:03;9.80;1.00
5457;DHT22;2751;49.802;9.944;2023-03-14T13:51:31;9.80;1.00
5457;DHT22;2751;49.802;9.944;2023-03-14T13:54:00;9.80;1.00
5457;DHT22;2751;49.802;9.944;2023-03-14T13:56:30;9.80;99.90
5457;DHT22;2751;49.802;9.944;2023-03-14T13:58:57;9.90;99.90
5457;DHT22;2751;49.802;9.944;2023-03-14T14:01:25;9.50;99.90
5457;DHT22;2751;49.802;9.944;2023-03-14T14:03:56;9.40;99.90
5457;DHT22;2751;49.802;9.944;2023-03-14T14:06:27;9.40;99.90
5457;DHT22;2751;49.802;9.944;2023-03-14T14:08:56;9.50;99.90
5457;DHT22;2751;49.802;9.944;2023-03-14T14:11:37;9.40;99.90
5457;DHT22;2751;49.802;9.944;2023-03-14T14:14:10;9.40;99.90
5457;DHT22;2751;49.802;9.944;2023-03-14T14:16:38;9.60;99.90
5457;DHT22;2751;49.802;9.944;2023-03-14T14:19:07;9.40;99.90
5457;DHT22;2751;49.802;9.944;2023-03-14T14:21:35;9.40;99.90
5457;DHT22;2751;49.802;9.944;2023-03-14T14:24:03;9.20;99.90
5457;DHT22;2751;49.802;9.944;2023-03-14T14:26:31;9.40;99.90
5457;DHT22;2751;49.802;9.944;2023-03-14T14:28:59;9.30;1.00
5457;DHT22;2751;49.802;9.944;2023-03-14T14:31:26;9.10;99.90
5457;DHT22;2751;49.802;9.944;2023-03-14T14:33:55;8.90;1.00
5457;DHT22;2751;49.802;9.944;2023-03-14T14:36:25;8.80;99.90
5457;DHT22;2751;49.802;9.944;2023-03-14T14:38:57;8.70;99.90
5457;DHT22;2751;49.802;9.944;2023-03-14T14:41:27;8.80;99.90
5457;DHT22;2751;49.802;9.944;2023-03-14T14:43:55;8.80;99.90
5457;DHT22;2751;49.802;9.944;2023-03-14T14:46:26;8.90;1.00
5457;DHT22;2751;49.802;9.944;2023-03-14T14:48:56;8.90;99.90
5457;DHT22;2751;49.802;9.944;2023-03-14T14:51:32;8.80;99.90
5457;DHT22;2751;49.802;9.944;2023-03-14T14:54:13;8.80;1.00
5457;DHT22;2751;49.802;9.944;2023-03-14T14:56:47;8.70;1.00
5457;DHT22;2751;49.802;9.944;2023-03-14T14:59:22;8.60;99.90
5457;DHT22;2751;49.802;9.944;2023-03-14T15:01:49;8.50;1.60
5457;DHT22;2751;49.802;9.944;2023-03-14T15:04:17;8.40;99.90
5457;DHT22;2751;49.802;9.944;2023-03-14T15:06:47;8.70;99.90
5457;DHT22;2751;49.802;9.944;2023-03-14T15:09:15;8.40;1.00
5457;DHT22;2751;49.802;9.944;2023-03-14T15:11:43;8.50;1.00
5457;DHT22;2751;49.802;9.944;2023-03-14T15:14:12;8.20;99.90
5457;DHT22;2751;49.802;9.944;2023-03-14T15:16:39;8.50;99.90
5457;DHT22;2751;49.802;9.944;2023-03-14T15:19:11;8.50;99.90
5457;DHT22;2751;49.802;9.944;2023-03-14T15:21:38;8.50;3.40
5457;DHT22;2751;49.802;9.944;2023-03-14T15:24:08;8.40;1.00
5457;DHT22;2751;49.802;9.944;2023-03-14T15:26:36;8.30;1.00
5457;DHT22;2751;49.802;9.944;2023-03-14T15:29:03;8.20;1.00
5457;DHT22;2751;49.802;9.944;2023-03-14T15:31:31;8.20;1.00
5457;DHT22;2751;49.802;9.944;2023-03-14T15:33:58;8.10;99.90
5457;DHT22;2751;49.802;9.944;2023-03-14T15:36:27;8.10;99.90
5457;DHT22;2751;49.802;9.944;2023-03-14T15:38:56;8.10;99.90
5457;DHT22;2751;49.802;9.944;2023-03-14T15:41:26;8.10;99.90
5457;DHT22;2751;49.802;9.944;2023-03-14T15:43:53;8.10;9.30
5457;DHT22;2751;49.802;9.944;2023-03-14T15:46:20;8.10;99.90
5457;DHT22;2751;49.802;9.944;2023-03-14T15:48:48;7.50;99.90
5457;DHT22;2751;49.802;9.944;2023-03-14T15:51:15;7.90;99.90
5457;DHT22;2751;49.802;9.944;2023-03-14T15:53:42;7.90;99.90
5457;DHT22;2751;49.802;9.944;2023-03-14T15:56:12;7.90;99.90
5457;DHT22;2751;49.802;9.944;2023-03-14T15:58:41;7.60;99.90
5457;DHT22;2751;49.802;9.944;2023-03-14T16:01:12;7.30;1.00
5457;DHT22;2751;49.802;9.944;2023-03-14T16:03:39;7.20;99.90
5457;DHT22;2751;49.802;9.944;2023-03-14T16:06:06;7.00;1.00
5457;DHT22;2751;49.802;9.944;2023-03-14T16:08:33;6.70;99.90
5457;DHT22;2751;49.802;9.944;2023-03-14T16:11:00;6.50;99.90
5457;DHT22;2751;49.802;9.944;2023-03-14T16:13:27;6.40;99.90
5457;DHT22;2751;49.802;9.944;2023-03-14T16:15:57;6.10;99.90
5457;DHT22;2751;49.802;9.944;2023-03-14T16:18:26;6.30;99.90
5457;DHT22;2751;49.802;9.944;2023-03-14T16:20:55;6.30;99.90
5457;DHT22;2751;49.802;9.944;2023-03-14T16:23:23;6.30;1.00
5457;DHT22;2751;49.802;9.944;2023-03-14T16:25:53;6.30;6.10
5457;DHT22;2751;49.802;9.944;2023-03-14T16:28:21;6.30;1.00
5457;DHT22;2751;49.802;9.944;2023-03-14T16:30:48;6.30;99.90
5457;DHT22;2751;49.802;9.944;2023-03-14T16:33:17;6.20;70.10